Time;durP1;ratioP1;P1;durP2;ratioP2;P2;SDS_P1;SDS_P2;PMS_P1;PMS_P2;Temp;Humidity;BMP_temperature;BMP_pressure;BME280_temperature;BME280_humidity;BME280_pressure;Samples;Min_cycle;Max_cycle;Signal;HPM_P1;HPM_P2
2023/08/19 00:00:16;;;;;;;30.48;26.45;;;;;;;;;;5032399;28;20188;-71
2023/08/19 00:02:42;;;;;;;33.08;28.65;;;;;;;;;;5026787;28;20221;-71
2023/08/19 00:05:09;;;;;;;38.15;31.92;;;;;;;;;;5031257;28;20194;-71
2023/08/19 00:07:35;;;;;;;37.15;33.10;;;;;;;;;;5016589;28;20178;-71
2023/08/19 00:10:05;;;;;;;36.33;32.28;;;;;;;;;;5034107;28;20712;-71
2023/08/19 00:12:30;;;;;;;42.17;35.33;;;;;;;;;;5024245;28;20187;-71
2023/08/19 00:14:56;;;;;;;40.60;35.13;;;;;;;;;;5034625;28;20213;-71
2023/08/19 00:17:23;;;;;;;39.53;33.40;;;;;;;;;;5026201;28;20228;-72
2023/08/19 00:19:48;;;;;;;39.33;32.72;;;;;;;;;;5032711;28;20186;-71
2023/08/19 00:22:14;;;;;;;35.97;31.63;;;;;;;;;;5029692;28;20489;-71
2023/08/19 00:24:39;;;;;;;38.58;32.80;;;;;;;;;;5032324;28;20196;-71
2023/08/19 00:27:05;;;;;;;41.90;34.30;;;;;;;;;;5029173;28;20533;-71
2023/08/19 00:29:30;;;;;;;39.17;32.97;;;;;;;;;;5030443;28;20229;-71
2023/08/19 00:31:56;;;;;;;38.42;33.92;;;;;;;;;;5029923;28;20213;-71
2023/08/19 00:34:21;;;;;;;40.30;32.92;;;;;;;;;;5030115;28;20688;-71
2023/08/19 00:36:48;;;;;;;42.38;33.25;;;;;;;;;;5026364;28;20199;-70
2023/08/19 00:39:13;;;;;;;39.85;34.13;;;;;;;;;;5028202;28;20216;-71
2023/08/19 00:41:38;;;;;;;38.40;32.95;;;;;;;;;;5027027;28;20202;-71
2023/08/19 00:44:04;;;;;;;40.72;33.60;;;;;;;;;;5012869;28;20590;-70
2023/08/19 00:46:30;;;;;;;36.75;32.67;;;;;;;;;;5031410;28;20201;-70
2023/08/19 00:48:57;;;;;;;38.80;32.03;;;;;;;;;;5032278;28;20196;-71
2023/08/19 00:51:22;;;;;;;39.40;33.45;;;;;;;;;;5031158;28;20192;-72
2023/08/19 00:53:50;;;;;;;38.92;31.60;;;;;;;;;;5032928;28;20206;-72
2023/08/19 00:56:15;;;;;;;38.15;30.88;;;;;;;;;;5031508;28;20205;-71
2023/08/19 00:58:41;;;;;;;38.03;32.03;;;;;;;;;;5031832;28;20198;-71
2023/08/19 01:01:07;;;;;;;41.97;33.60;;;;;;;;;;5031152;28;20412;-71
2023/08/19 01:03:33;;;;;;;37.15;31.20;;;;;;;;;;5032587;28;20190;-71
2023/08/19 01:06:22;;;;;;;37.60;32.50;;;;;;;;;;5030860;28;20556;-71
2023/08/19 01:09:09;;;;;;;34.22;29.90;;;;;;;;;;5000209;28;20202;-72
2023/08/19 01:11:51;;;;;;;39.58;29.95;;;;;;;;;;5031336;28;20271;-72
2023/08/19 01:14:40;;;;;;;36.60;30.58;;;;;;;;;;5030858;28;20206;-71
2023/08/19 01:17:09;;;;;;;34.33;28.92;;;;;;;;;;5018461;28;20214;-72
2023/08/19 01:19:36;;;;;;;34.30;30.52;;;;;;;;;;5013976;28;20323;-71
2023/08/19 01:22:07;;;;;;;33.47;28.50;;;;;;;;;;5030230;28;20243;-71
2023/08/19 01:24:40;;;;;;;40.20;30.65;;;;;;;;;;5030191;28;20197;-71
2023/08/19 01:27:20;;;;;;;37.65;31.75;;;;;;;;;;5031517;28;20186;-71
2023/08/19 01:29:46;;;;;;;39.72;32.63;;;;;;;;;;5029062;28;20185;-71
2023/08/19 01:32:11;;;;;;;38.53;31.10;;;;;;;;;;5033640;28;20200;-72
2023/08/19 01:34:37;;;;;;;34.17;29.70;;;;;;;;;;5027895;28;20260;-72
2023/08/19 01:37:07;;;;;;;36.55;30.98;;;;;;;;;;5025566;28;20639;-71
2023/08/19 01:39:34;;;;;;;35.30;30.35;;;;;;;;;;5023356;28;20198;-71
2023/08/19 01:42:00;;;;;;;37.88;30.48;;;;;;;;;;5027463;28;20601;-70
2023/08/19 01:44:26;;;;;;;32.80;29.02;;;;;;;;;;5030569;28;20325;-71
2023/08/19 01:46:51;;;;;;;35.50;29.70;;;;;;;;;;5030764;28;20189;-71
2023/08/19 01:49:17;;;;;;;35.20;29.52;;;;;;;;;;5031067;28;20194;-71
2023/08/19 01:51:42;;;;;;;33.25;29.45;;;;;;;;;;5029707;28;20206;-71
2023/08/19 01:54:07;;;;;;;35.80;30.75;;;;;;;;;;5030672;28;20209;-71
2023/08/19 01:56:33;;;;;;;33.83;29.25;;;;;;;;;;5029826;28;20224;-71
2023/08/19 01:58:59;;;;;;;33.17;29.60;;;;;;;;;;5017437;28;20320;-71
2023/08/19 02:01:24;;;;;;;34.95;31.10;;;;;;;;;;5030765;28;20221;-71
2023/08/19 02:03:49;;;;;;;39.05;30.88;;;;;;;;;;5030720;28;20320;-71
2023/08/19 02:06:15;;;;;;;35.72;31.30;;;;;;;;;;5034031;28;20204;-71
2023/08/19 02:08:40;;;;;;;37.75;31.92;;;;;;;;;;5030442;28;20186;-70
2023/08/19 02:11:05;;;;;;;34.95;30.08;;;;;;;;;;5029678;28;20265;-71
2023/08/19 02:13:31;;;;;;;37.03;30.30;;;;;;;;;;5015435;28;20225;-71
2023/08/19 02:15:56;;;;;;;37.65;32.03;;;;;;;;;;5022112;28;20237;-71
2023/08/19 02:18:22;;;;;;;37.08;30.65;;;;;;;;;;5025008;28;20205;-71
2023/08/19 02:20:48;;;;;;;37.28;30.23;;;;;;;;;;5014816;28;20189;-70
2023/08/19 02:23:13;;;;;;;33.60;29.58;;;;;;;;;;5028051;28;20186;-71
2023/08/19 02:25:39;;;;;;;33.42;29.10;;;;;;;;;;5014317;28;20186;-71
2023/08/19 02:28:04;;;;;;;37.40;31.50;;;;;;;;;;5027356;28;20228;-70
2023/08/19 02:30:31;;;;;;;36.20;30.23;;;;;;;;;;5033253;28;20259;-71
2023/08/19 02:32:57;;;;;;;39.92;30.08;;;;;;;;;;5030121;28;20217;-70
2023/08/19 02:35:22;;;;;;;36.55;29.20;;;;;;;;;;5030171;28;20252;-70
2023/08/19 02:37:48;;;;;;;35.20;28.88;;;;;;;;;;5028505;28;20190;-71
2023/08/19 02:40:13;;;;;;;36.35;29.48;;;;;;;;;;5030548;28;20190;-70
2023/08/19 02:42:38;;;;;;;35.33;30.08;;;;;;;;;;5027834;28;20255;-70
2023/08/19 02:45:06;;;;;;;32.42;28.92;;;;;;;;;;5030409;28;20221;-71
2023/08/19 02:47:31;;;;;;;33.42;28.65;;;;;;;;;;5024913;28;20541;-71
2023/08/19 02:49:56;;;;;;;30.55;27.30;;;;;;;;;;5030076;28;20263;-70
2023/08/19 02:52:22;;;;;;;34.08;27.67;;;;;;;;;;5026117;28;20337;-71
2023/08/19 02:54:47;;;;;;;33.53;28.65;;;;;;;;;;5026861;28;20225;-71
2023/08/19 02:57:13;;;;;;;34.53;28.65;;;;;;;;;;5029295;28;20324;-71
2023/08/19 02:59:38;;;;;;;31.88;28.48;;;;;;;;;;5027293;28;20189;-71
2023/08/19 03:02:03;;;;;;;31.60;27.00;;;;;;;;;;5022377;28;20206;-71
2023/08/19 03:04:29;;;;;;;35.40;28.38;;;;;;;;;;5035058;28;20277;-71
2023/08/19 03:06:54;;;;;;;31.33;26.70;;;;;;;;;;5014666;28;20321;-71
2023/08/19 03:09:20;;;;;;;32.38;27.58;;;;;;;;;;5010328;28;20205;-71
2023/08/19 03:11:45;;;;;;;31.88;26.65;;;;;;;;;;5026034;28;20191;-71
2023/08/19 03:14:10;;;;;;;30.25;26.98;;;;;;;;;;5018987;28;20348;-71
2023/08/19 03:16:36;;;;;;;31.17;26.17;;;;;;;;;;5029672;28;20212;-71
2023/08/19 03:19:01;;;;;;;32.90;27.60;;;;;;;;;;5022086;28;20291;-70
2023/08/19 03:21:27;;;;;;;32.92;26.75;;;;;;;;;;5014588;28;20210;-70
2023/08/19 03:23:52;;;;;;;33.47;26.90;;;;;;;;;;5004963;28;20668;-70
2023/08/19 03:26:17;;;;;;;32.67;27.45;;;;;;;;;;5034288;28;20208;-70
2023/08/19 03:28:43;;;;;;;31.88;27.27;;;;;;;;;;5024232;28;20252;-71
2023/08/19 03:31:09;;;;;;;32.53;28.25;;;;;;;;;;5036699;28;20532;-70
2023/08/19 03:33:35;;;;;;;34.10;28.17;;;;;;;;;;5022167;28;20215;-71
2023/08/19 03:36:00;;;;;;;33.28;27.92;;;;;;;;;;5032740;28;20186;-70
2023/08/19 03:38:26;;;;;;;34.13;28.10;;;;;;;;;;5033467;28;20201;-70
2023/08/19 03:40:51;;;;;;;29.80;26.55;;;;;;;;;;5033345;28;20205;-71
2023/08/19 03:43:17;;;;;;;30.95;27.13;;;;;;;;;;5031645;28;20684;-71
2023/08/19 03:45:42;;;;;;;30.27;26.65;;;;;;;;;;5033726;28;20304;-71
2023/08/19 03:48:07;;;;;;;31.27;25.40;;;;;;;;;;5032854;28;20677;-71
2023/08/19 03:50:33;;;;;;;32.60;26.98;;;;;;;;;;5032013;28;20240;-71
2023/08/19 03:52:58;;;;;;;33.80;26.67;;;;;;;;;;5030699;28;20186;-71
2023/08/19 03:55:24;;;;;;;30.92;26.55;;;;;;;;;;5031498;28;20205;-71
2023/08/19 03:57:51;;;;;;;30.98;25.23;;;;;;;;;;5030882;28;20213;-71
2023/08/19 04:00:16;;;;;;;30.80;25.75;;;;;;;;;;5041141;28;20228;-70
2023/08/19 04:02:42;;;;;;;33.00;26.15;;;;;;;;;;5032388;28;20220;-70
2023/08/19 04:05:10;;;;;;;30.50;25.42;;;;;;;;;;5031071;28;20183;-70
2023/08/19 04:07:35;;;;;;;28.63;25.15;;;;;;;;;;5033548;28;20240;-70
2023/08/19 04:10:01;;;;;;;31.38;25.90;;;;;;;;;;5031932;28;20243;-70
2023/08/19 04:12:27;;;;;;;28.38;25.08;;;;;;;;;;5026754;28;20556;-70
2023/08/19 04:14:53;;;;;;;33.72;26.25;;;;;;;;;;5032310;28;20563;-70
2023/08/19 04:17:18;;;;;;;32.63;26.00;;;;;;;;;;5032863;28;20249;-70
2023/08/19 04:19:45;;;;;;;27.95;24.55;;;;;;;;;;5027439;28;20222;-70
2023/08/19 04:22:12;;;;;;;30.80;23.45;;;;;;;;;;5018703;28;20648;-70
2023/08/19 04:24:38;;;;;;;29.25;24.77;;;;;;;;;;5031535;28;20190;-70
2023/08/19 04:27:03;;;;;;;28.75;24.23;;;;;;;;;;5032709;28;20252;-70
2023/08/19 04:29:32;;;;;;;29.42;23.90;;;;;;;;;;5025338;28;20316;-71
2023/08/19 04:31:58;;;;;;;28.48;23.92;;;;;;;;;;5020431;28;20666;-71
2023/08/19 04:34:24;;;;;;;25.58;22.80;;;;;;;;;;5025321;28;20198;-71
2023/08/19 04:36:49;;;;;;;28.95;22.17;;;;;;;;;;5033758;28;20214;-72
2023/08/19 04:39:14;;;;;;;27.60;22.55;;;;;;;;;;5032227;28;20244;-71
2023/08/19 04:41:40;;;;;;;26.58;21.55;;;;;;;;;;5023825;28;20628;-71
2023/08/19 04:44:05;;;;;;;26.42;21.05;;;;;;;;;;5029290;28;20361;-71
2023/08/19 04:46:31;;;;;;;23.38;20.92;;;;;;;;;;5032357;28;20630;-71
2023/08/19 04:48:56;;;;;;;24.92;21.27;;;;;;;;;;5030901;28;20232;-70
2023/08/19 04:51:22;;;;;;;24.42;19.98;;;;;;;;;;5032588;28;20244;-71
2023/08/19 04:53:47;;;;;;;22.15;19.75;;;;;;;;;;5030076;28;20300;-70
2023/08/19 04:56:13;;;;;;;24.50;19.15;;;;;;;;;;5044064;28;20563;-71
2023/08/19 04:58:39;;;;;;;22.45;18.30;;;;;;;;;;5031449;28;20200;-70
2023/08/19 05:01:06;;;;;;;20.25;17.52;;;;;;;;;;5031976;28;20282;-70
2023/08/19 05:03:31;;;;;;;24.05;18.35;;;;;;;;;;5027467;28;20286;-71
2023/08/19 05:05:56;;;;;;;21.92;17.45;;;;;;;;;;5031381;28;20607;-71
2023/08/19 05:08:22;;;;;;;20.10;16.48;;;;;;;;;;5031493;28;20222;-70
2023/08/19 05:10:47;;;;;;;18.45;16.48;;;;;;;;;;5032451;28;20649;-70
2023/08/19 05:13:13;;;;;;;18.67;16.75;;;;;;;;;;5031527;28;20275;-71
2023/08/19 05:15:38;;;;;;;18.10;15.57;;;;;;;;;;5033413;28;20186;-70
2023/08/19 05:18:04;;;;;;;20.58;15.88;;;;;;;;;;5032128;28;20756;-70
2023/08/19 05:20:30;;;;;;;18.75;15.32;;;;;;;;;;5031913;28;20201;-71
2023/08/19 05:22:55;;;;;;;22.75;15.40;;;;;;;;;;5031787;28;20517;-71
2023/08/19 05:25:21;;;;;;;17.55;14.93;;;;;;;;;;5031345;28;20221;-71
2023/08/19 05:27:46;;;;;;;17.17;14.90;;;;;;;;;;5032022;28;20190;-71
2023/08/19 05:30:12;;;;;;;18.65;14.40;;;;;;;;;;5033533;28;20181;-70
2023/08/19 05:32:38;;;;;;;17.15;14.15;;;;;;;;;;5014942;28;20248;-70
2023/08/19 05:35:04;;;;;;;18.10;14.05;;;;;;;;;;5032410;28;20677;-71
2023/08/19 05:37:29;;;;;;;16.08;14.23;;;;;;;;;;5030429;28;20201;-72
2023/08/19 05:39:54;;;;;;;18.17;14.00;;;;;;;;;;5015855;28;20202;-71
2023/08/19 05:42:20;;;;;;;15.80;13.85;;;;;;;;;;5025702;28;20654;-71
2023/08/19 05:44:45;;;;;;;16.52;13.43;;;;;;;;;;5025048;28;20229;-71
2023/08/19 05:47:11;;;;;;;14.98;12.85;;;;;;;;;;5022759;28;20198;-71
2023/08/19 05:49:36;;;;;;;18.15;13.40;;;;;;;;;;5020725;28;20190;-71
2023/08/19 05:52:02;;;;;;;16.20;13.05;;;;;;;;;;5032589;28;20666;-71
2023/08/19 05:54:27;;;;;;;16.90;13.23;;;;;;;;;;5027834;28;20278;-71
2023/08/19 05:56:53;;;;;;;15.85;12.13;;;;;;;;;;5006216;28;20218;-71
2023/08/19 05:59:18;;;;;;;15.60;12.93;;;;;;;;;;5030245;28;20560;-72
2023/08/19 06:01:44;;;;;;;15.63;12.77;;;;;;;;;;5029103;28;20194;-71
2023/08/19 06:04:09;;;;;;;15.35;11.90;;;;;;;;;;5028004;28;20685;-71
2023/08/19 06:06:34;;;;;;;17.10;12.02;;;;;;;;;;5026220;28;20193;-71
2023/08/19 06:09:00;;;;;;;12.73;11.48;;;;;;;;;;5024251;28;20630;-71
2023/08/19 06:11:25;;;;;;;16.67;11.20;;;;;;;;;;5025991;28;20243;-71
2023/08/19 06:13:51;;;;;;;13.13;11.10;;;;;;;;;;5030197;28;20295;-72
2023/08/19 06:16:16;;;;;;;12.93;10.13;;;;;;;;;;5030286;28;20600;-70
2023/08/19 06:18:42;;;;;;;12.25;10.95;;;;;;;;;;5028859;28;20220;-70
2023/08/19 06:21:07;;;;;;;13.77;11.48;;;;;;;;;;5029788;28;20213;-70
2023/08/19 06:23:33;;;;;;;12.32;10.50;;;;;;;;;;5029648;28;20217;-70
2023/08/19 06:25:58;;;;;;;13.32;9.40;;;;;;;;;;5030856;28;20194;-71
2023/08/19 06:28:24;;;;;;;12.60;9.75;;;;;;;;;;5027485;28;20190;-70
2023/08/19 06:30:50;;;;;;;13.95;10.43;;;;;;;;;;5032292;28;20193;-70
2023/08/19 06:33:17;;;;;;;13.35;9.63;;;;;;;;;;5025034;28;20182;-71
2023/08/19 06:35:49;;;;;;;14.15;10.00;;;;;;;;;;5013872;28;20573;-71
2023/08/19 06:38:26;;;;;;;12.95;9.68;;;;;;;;;;5030097;28;20302;-71
2023/08/19 06:41:11;;;;;;;14.65;9.02;;;;;;;;;;5028932;28;20298;-71
2023/08/19 06:43:38;;;;;;;12.15;9.73;;;;;;;;;;5026480;28;20225;-70
2023/08/19 06:46:05;;;;;;;11.95;9.68;;;;;;;;;;5025431;28;20204;-70
2023/08/19 06:48:32;;;;;;;16.48;9.70;;;;;;;;;;5032074;28;20713;-70
2023/08/19 06:50:58;;;;;;;9.70;8.80;;;;;;;;;;5018654;28;20191;-70
2023/08/19 06:53:23;;;;;;;11.32;8.80;;;;;;;;;;5029791;28;20186;-70
2023/08/19 06:56:17;;;;;;;11.95;8.82;;;;;;;;;;5022849;28;20190;-70
2023/08/19 06:58:52;;;;;;;14.98;8.23;;;;;;;;;;5021171;28;20181;-70
2023/08/19 07:01:24;;;;;;;10.88;8.90;;;;;;;;;;5014767;28;20790;-70
2023/08/19 07:03:53;;;;;;;10.65;8.82;;;;;;;;;;5024197;28;20186;-70
2023/08/19 07:06:22;;;;;;;9.90;7.88;;;;;;;;;;5030187;28;20213;-71
2023/08/19 07:08:48;;;;;;;13.23;8.45;;;;;;;;;;5033096;28;20280;-71
2023/08/19 07:11:15;;;;;;;10.98;7.88;;;;;;;;;;5020439;28;20198;-70
2023/08/19 07:13:41;;;;;;;11.60;8.65;;;;;;;;;;5022123;28;20213;-71
2023/08/19 07:16:09;;;;;;;11.48;7.70;;;;;;;;;;5036715;28;20202;-70
2023/08/19 07:18:39;;;;;;;10.15;7.80;;;;;;;;;;5036552;28;20206;-70
2023/08/19 07:21:10;;;;;;;11.25;8.10;;;;;;;;;;5027350;28;20232;-70
2023/08/19 07:23:39;;;;;;;9.73;7.43;;;;;;;;;;5018320;28;20281;-70
2023/08/19 07:26:04;;;;;;;12.82;7.43;;;;;;;;;;5034296;28;20208;-72
2023/08/19 07:28:31;;;;;;;9.77;7.07;;;;;;;;;;5034759;28;20201;-70
2023/08/19 07:30:57;;;;;;;10.80;7.85;;;;;;;;;;5040622;28;20255;-70
2023/08/19 07:33:23;;;;;;;10.85;7.38;;;;;;;;;;5024052;28;20198;-70
2023/08/19 07:35:48;;;;;;;10.68;6.85;;;;;;;;;;5034913;28;20608;-70
2023/08/19 07:38:13;;;;;;;10.32;7.60;;;;;;;;;;5036801;28;20209;-70
2023/08/19 07:40:39;;;;;;;10.43;7.45;;;;;;;;;;5036029;28;20505;-71
2023/08/19 07:43:04;;;;;;;9.38;7.35;;;;;;;;;;5018017;28;20274;-71
2023/08/19 07:45:30;;;;;;;9.23;6.82;;;;;;;;;;5038327;28;20739;-71
2023/08/19 07:47:55;;;;;;;11.48;7.03;;;;;;;;;;5027170;28;20182;-71
2023/08/19 07:50:21;;;;;;;13.65;6.97;;;;;;;;;;5034234;28;20684;-70
2023/08/19 07:52:47;;;;;;;7.88;6.93;;;;;;;;;;5034102;28;20193;-70
2023/08/19 07:55:13;;;;;;;10.23;6.70;;;;;;;;;;5030841;28;20240;-70
2023/08/19 07:57:38;;;;;;;10.60;6.38;;;;;;;;;;5030697;28;20194;-72
2023/08/19 08:00:04;;;;;;;9.52;6.47;;;;;;;;;;5035099;28;20668;-71
2023/08/19 08:02:29;;;;;;;9.68;6.20;;;;;;;;;;5036418;28;20201;-71
2023/08/19 08:04:55;;;;;;;8.00;6.13;;;;;;;;;;5030054;28;20193;-71
2023/08/19 08:07:21;;;;;;;13.88;6.13;;;;;;;;;;5034732;28;20185;-71
2023/08/19 08:09:46;;;;;;;6.22;5.57;;;;;;;;;;5025678;28;20669;-71
2023/08/19 08:12:11;;;;;;;6.10;5.50;;;;;;;;;;5033425;28;20189;-70
2023/08/19 08:14:37;;;;;;;7.28;5.63;;;;;;;;;;5017203;28;20206;-70
2023/08/19 08:17:03;;;;;;;8.25;5.38;;;;;;;;;;5033391;28;20213;-71
2023/08/19 08:19:28;;;;;;;7.72;4.93;;;;;;;;;;5032855;28;20268;-71
2023/08/19 08:21:54;;;;;;;7.70;4.82;;;;;;;;;;5028724;28;20207;-71
2023/08/19 08:24:20;;;;;;;8.20;5.03;;;;;;;;;;5020986;28;20524;-71
2023/08/19 08:26:46;;;;;;;8.35;5.18;;;;;;;;;;5018520;28;20194;-72
2023/08/19 08:29:11;;;;;;;11.00;5.25;;;;;;;;;;5029635;28;20240;-72
2023/08/19 08:31:37;;;;;;;6.60;4.80;;;;;;;;;;5035910;28;20189;-71
2023/08/19 08:34:02;;;;;;;8.35;4.18;;;;;;;;;;5032698;28;20202;-72
2023/08/19 08:36:27;;;;;;;6.68;4.75;;;;;;;;;;5033460;28;20230;-70
2023/08/19 08:38:53;;;;;;;8.25;4.70;;;;;;;;;;5031740;28;20190;-71
2023/08/19 08:41:18;;;;;;;8.05;4.97;;;;;;;;;;5039461;28;20617;-70
2023/08/19 08:43:46;;;;;;;7.80;4.68;;;;;;;;;;5021465;28;20309;-71
2023/08/19 08:46:13;;;;;;;7.90;4.10;;;;;;;;;;5018204;28;20277;-71
2023/08/19 08:48:39;;;;;;;6.18;4.50;;;;;;;;;;5032624;28;20201;-70
2023/08/19 08:51:05;;;;;;;5.43;4.35;;;;;;;;;;5029648;28;20221;-70
2023/08/19 08:53:30;;;;;;;8.77;3.90;;;;;;;;;;5025788;28;20193;-70
2023/08/19 08:55:56;;;;;;;9.13;4.60;;;;;;;;;;5019647;28;20657;-70
2023/08/19 08:58:22;;;;;;;8.60;4.82;;;;;;;;;;5018982;28;20190;-70
2023/08/19 09:00:51;;;;;;;12.77;4.47;;;;;;;;;;5030695;28;20240;-70
2023/08/19 09:03:25;;;;;;;6.40;4.30;;;;;;;;;;5032002;28;20178;-70
2023/08/19 09:05:54;;;;;;;6.35;3.95;;;;;;;;;;5031950;28;20186;-70
2023/08/19 09:08:28;;;;;;;11.00;4.38;;;;;;;;;;5031532;28;20185;-70
2023/08/19 09:10:54;;;;;;;7.25;4.05;;;;;;;;;;5023411;28;20186;-69
2023/08/19 09:13:24;;;;;;;11.10;4.13;;;;;;;;;;5014526;28;20192;-70
2023/08/19 09:15:49;;;;;;;7.47;4.53;;;;;;;;;;5029853;28;20296;-69
2023/08/19 09:18:17;;;;;;;6.20;4.55;;;;;;;;;;5030191;28;20594;-70
2023/08/19 09:20:43;;;;;;;7.40;4.50;;;;;;;;;;5028021;28;20216;-69
2023/08/19 09:23:09;;;;;;;7.68;4.18;;;;;;;;;;5031311;28;20281;-69
2023/08/19 09:25:36;;;;;;;8.30;4.60;;;;;;;;;;5015845;28;20575;-69
2023/08/19 09:28:01;;;;;;;9.25;3.97;;;;;;;;;;5025585;28;20204;-69
2023/08/19 09:30:33;;;;;;;8.18;4.25;;;;;;;;;;5027833;28;20187;-69
2023/08/19 09:32:59;;;;;;;5.85;4.45;;;;;;;;;;5019201;28;20720;-69
2023/08/19 09:35:34;;;;;;;7.30;4.43;;;;;;;;;;5029944;28;20202;-69
2023/08/19 09:37:59;;;;;;;5.13;3.92;;;;;;;;;;5038368;28;20690;-69
2023/08/19 09:40:25;;;;;;;8.10;4.32;;;;;;;;;;5019108;28;20205;-69
2023/08/19 09:42:50;;;;;;;6.60;4.82;;;;;;;;;;5009474;28;20253;-69
2023/08/19 09:45:18;;;;;;;7.18;4.30;;;;;;;;;;5015616;28;20187;-69
2023/08/19 09:47:49;;;;;;;8.55;4.90;;;;;;;;;;5026276;28;20507;-69
2023/08/19 09:50:22;;;;;;;7.45;5.03;;;;;;;;;;5025158;28;20559;-69
2023/08/19 09:52:56;;;;;;;8.80;5.20;;;;;;;;;;5026675;28;20194;-69
2023/08/19 09:55:23;;;;;;;8.73;5.43;;;;;;;;;;5022670;28;20697;-69
2023/08/19 09:57:48;;;;;;;8.68;5.88;;;;;;;;;;5025143;28;20190;-69
2023/08/19 10:00:14;;;;;;;9.40;5.90;;;;;;;;;;5027095;28;20521;-69
2023/08/19 10:02:39;;;;;;;8.57;5.25;;;;;;;;;;5025150;28;20289;-70
2023/08/19 10:05:05;;;;;;;11.18;6.38;;;;;;;;;;5028562;28;20318;-71
2023/08/19 10:07:33;;;;;;;8.90;5.88;;;;;;;;;;5022078;28;20511;-70
2023/08/19 10:10:06;;;;;;;8.73;6.18;;;;;;;;;;5025163;28;20183;-69
2023/08/19 10:12:35;;;;;;;10.95;6.32;;;;;;;;;;5015805;28;20182;-69
2023/08/19 10:15:03;;;;;;;11.05;6.28;;;;;;;;;;5029563;28;20202;-69
2023/08/19 10:17:31;;;;;;;11.80;5.78;;;;;;;;;;5022920;28;20667;-69
2023/08/19 10:20:09;;;;;;;15.10;6.13;;;;;;;;;;5027813;28;20213;-68
2023/08/19 10:22:38;;;;;;;10.88;6.50;;;;;;;;;;5031526;28;20193;-69
2023/08/19 10:25:06;;;;;;;11.85;6.68;;;;;;;;;;5015329;28;20320;-69
2023/08/19 10:27:33;;;;;;;9.88;6.40;;;;;;;;;;5028306;28;20186;-70
2023/08/19 10:29:58;;;;;;;9.38;7.40;;;;;;;;;;5029689;28;20186;-69
2023/08/19 10:32:25;;;;;;;12.77;7.90;;;;;;;;;;5031894;28;20204;-68
2023/08/19 10:34:59;;;;;;;9.65;7.07;;;;;;;;;;5039633;28;20208;-69
2023/08/19 10:37:29;;;;;;;14.35;7.65;;;;;;;;;;5030224;28;20581;-70
2023/08/19 10:40:09;;;;;;;12.25;8.25;;;;;;;;;;5030400;28;20971;-70
2023/08/19 10:42:35;;;;;;;16.25;8.77;;;;;;;;;;5031059;28;20277;-70
2023/08/19 10:45:00;;;;;;;11.40;8.00;;;;;;;;;;5030830;28;20357;-70
2023/08/19 10:47:26;;;;;;;14.73;9.05;;;;;;;;;;5031184;28;20190;-69
2023/08/19 10:50:00;;;;;;;9.88;8.18;;;;;;;;;;5030757;28;20213;-69
2023/08/19 10:52:26;;;;;;;17.73;9.52;;;;;;;;;;5030368;28;20197;-68
2023/08/19 10:54:51;;;;;;;10.55;8.50;;;;;;;;;;5029973;28;20711;-68
2023/08/19 10:57:24;;;;;;;13.20;9.15;;;;;;;;;;5023635;28;20204;-69
2023/08/19 10:59:57;;;;;;;16.52;9.32;;;;;;;;;;5011591;28;20561;-68
2023/08/19 11:02:23;;;;;;;14.02;9.77;;;;;;;;;;5029320;28;20281;-69
2023/08/19 11:04:50;;;;;;;12.98;9.38;;;;;;;;;;5029932;28;20244;-69
2023/08/19 11:07:16;;;;;;;13.95;9.13;;;;;;;;;;5029927;28;20273;-69
2023/08/19 11:09:45;;;;;;;16.30;9.98;;;;;;;;;;5015001;28;20195;-69
2023/08/19 11:12:11;;;;;;;11.18;10.00;;;;;;;;;;5029643;28;20208;-69
2023/08/19 11:14:38;;;;;;;14.73;9.95;;;;;;;;;;5028814;28;20202;-69
2023/08/19 11:17:03;;;;;;;11.77;9.55;;;;;;;;;;5025350;28;20355;-69
2023/08/19 11:19:30;;;;;;;14.65;9.30;;;;;;;;;;5030584;28;20214;-68
2023/08/19 11:21:56;;;;;;;15.18;10.05;;;;;;;;;;5019299;28;20712;-71
2023/08/19 11:24:32;;;;;;;17.77;10.02;;;;;;;;;;5030586;28;20213;-70
2023/08/19 11:26:57;;;;;;;13.35;9.45;;;;;;;;;;5026956;28;20549;-69
2023/08/19 11:29:23;;;;;;;13.38;9.85;;;;;;;;;;5019799;28;20189;-69
2023/08/19 11:31:49;;;;;;;16.80;10.35;;;;;;;;;;5001353;28;20746;-71
2023/08/19 11:34:14;;;;;;;15.20;9.85;;;;;;;;;;5028408;28;20212;-69
2023/08/19 11:36:42;;;;;;;14.77;10.25;;;;;;;;;;5029288;28;20194;-69
2023/08/19 11:39:08;;;;;;;17.05;9.43;;;;;;;;;;5029295;28;20576;-70
2023/08/19 11:41:34;;;;;;;17.23;10.82;;;;;;;;;;5021065;28;20198;-70
2023/08/19 11:44:04;;;;;;;19.63;10.60;;;;;;;;;;5025939;28;20222;-70
2023/08/19 11:46:30;;;;;;;16.17;10.73;;;;;;;;;;5019003;28;20209;-70
2023/08/19 11:48:57;;;;;;;16.23;11.50;;;;;;;;;;5032491;28;20185;-70
2023/08/19 11:51:24;;;;;;;14.88;11.68;;;;;;;;;;5029408;28;20198;-70
2023/08/19 11:53:53;;;;;;;14.00;11.68;;;;;;;;;;5033087;28;20198;-69
2023/08/19 11:56:20;;;;;;;15.40;12.50;;;;;;;;;;5033071;28;20204;-69
2023/08/19 11:58:50;;;;;;;13.40;11.90;;;;;;;;;;5032466;28;20190;-69
2023/08/19 12:01:24;;;;;;;15.13;12.70;;;;;;;;;;5028265;28;20606;-70
2023/08/19 12:03:51;;;;;;;15.07;12.95;;;;;;;;;;5032722;28;20564;-69
2023/08/19 12:06:17;;;;;;;16.63;13.63;;;;;;;;;;5030901;28;20392;-70
2023/08/19 12:08:45;;;;;;;19.55;12.02;;;;;;;;;;5032805;28;20296;-70
2023/08/19 12:11:12;;;;;;;16.75;13.73;;;;;;;;;;5028053;28;20261;-70
2023/08/19 12:13:38;;;;;;;14.73;12.70;;;;;;;;;;5031461;28;20573;-69
2023/08/19 12:16:04;;;;;;;18.08;12.45;;;;;;;;;;5024801;28;20186;-70
2023/08/19 12:18:34;;;;;;;13.70;12.27;;;;;;;;;;5032319;28;20218;-70
2023/08/19 12:21:01;;;;;;;13.75;12.32;;;;;;;;;;5029935;28;20215;-70
2023/08/19 12:23:27;;;;;;;14.93;13.27;;;;;;;;;;5028728;28;20189;-70
2023/08/19 12:25:57;;;;;;;22.38;15.15;;;;;;;;;;5034315;28;20273;-70
2023/08/19 12:28:24;;;;;;;22.33;15.88;;;;;;;;;;5021158;28;20524;-70
2023/08/19 12:30:50;;;;;;;18.67;15.60;;;;;;;;;;5024832;28;20182;-70
2023/08/19 12:33:17;;;;;;;18.85;14.48;;;;;;;;;;5024549;28;20206;-70
2023/08/19 12:35:46;;;;;;;20.42;15.98;;;;;;;;;;5016584;28;20198;-70
2023/08/19 12:38:16;;;;;;;18.77;16.38;;;;;;;;;;5024651;28;20190;-70
2023/08/19 12:40:42;;;;;;;18.20;16.25;;;;;;;;;;5031688;28;20634;-70
2023/08/19 12:43:08;;;;;;;17.02;15.10;;;;;;;;;;5022243;28;20705;-70
2023/08/19 12:45:34;;;;;;;22.70;16.83;;;;;;;;;;5032361;28;20216;-69
2023/08/19 12:48:00;;;;;;;19.75;15.73;;;;;;;;;;5032610;28;20297;-70
2023/08/19 12:50:26;;;;;;;23.60;16.90;;;;;;;;;;5032094;28;20221;-70
2023/08/19 12:52:51;;;;;;;20.67;16.83;;;;;;;;;;5030476;28;20656;-70
2023/08/19 12:55:21;;;;;;;18.52;16.50;;;;;;;;;;5031876;28;20213;-70
2023/08/19 12:57:48;;;;;;;22.80;18.55;;;;;;;;;;5028899;28;20345;-69
2023/08/19 13:00:14;;;;;;;24.23;18.80;;;;;;;;;;5032568;28;20190;-69
2023/08/19 13:02:40;;;;;;;24.92;19.30;;;;;;;;;;5029940;28;20198;-69
2023/08/19 13:05:06;;;;;;;25.38;20.30;;;;;;;;;;5031308;28;20200;-68
2023/08/19 13:07:32;;;;;;;25.65;20.27;;;;;;;;;;5031439;28;20514;-69
2023/08/19 13:09:59;;;;;;;24.80;21.83;;;;;;;;;;5031546;28;20181;-69
2023/08/19 13:12:26;;;;;;;28.50;25.13;;;;;;;;;;5027946;28;20241;-69
2023/08/19 13:14:51;;;;;;;30.88;26.95;;;;;;;;;;5030596;28;20217;-70
2023/08/19 13:17:16;;;;;;;36.85;30.50;;;;;;;;;;5028484;28;20228;-70
2023/08/19 13:19:42;;;;;;;37.67;31.42;;;;;;;;;;5031080;28;20614;-70
2023/08/19 13:22:07;;;;;;;44.88;36.80;;;;;;;;;;5028914;28;20196;-69
2023/08/19 13:24:33;;;;;;;51.08;39.15;;;;;;;;;;5032390;28;20249;-70
2023/08/19 13:26:58;;;;;;;47.45;38.78;;;;;;;;;;5027440;28;20679;-70
2023/08/19 13:29:24;;;;;;;45.53;39.97;;;;;;;;;;5029646;28;20200;-70
2023/08/19 13:31:49;;;;;;;51.42;41.28;;;;;;;;;;5019245;28;20213;-70
2023/08/19 13:34:15;;;;;;;56.17;42.88;;;;;;;;;;5029465;28;20241;-70
2023/08/19 13:36:40;;;;;;;52.20;40.25;;;;;;;;;;5030418;28;20646;-70
2023/08/19 13:39:06;;;;;;;50.35;40.60;;;;;;;;;;5026309;28;20187;-70
2023/08/19 13:41:32;;;;;;;51.72;39.45;;;;;;;;;;5018857;28;20198;-70
2023/08/19 13:43:58;;;;;;;45.47;37.95;;;;;;;;;;5025330;28;20230;-70
2023/08/19 13:46:23;;;;;;;45.20;36.80;;;;;;;;;;5027590;28;20186;-70
2023/08/19 13:48:49;;;;;;;42.55;34.50;;;;;;;;;;5022212;28;20275;-71
2023/08/19 13:51:18;;;;;;;45.60;34.25;;;;;;;;;;5029525;28;20550;-70
2023/08/19 13:53:44;;;;;;;46.97;34.75;;;;;;;;;;5030632;28;20185;-70
2023/08/19 13:56:10;;;;;;;42.78;32.05;;;;;;;;;;5029660;28;20545;-70
2023/08/19 13:58:35;;;;;;;35.47;29.27;;;;;;;;;;5029285;28;20182;-70
2023/08/19 14:01:01;;;;;;;37.85;26.63;;;;;;;;;;5030028;28;20198;-70
2023/08/19 14:03:27;;;;;;;38.30;27.00;;;;;;;;;;5011388;28;20183;-70
2023/08/19 14:05:52;;;;;;;35.58;25.40;;;;;;;;;;5010209;28;20300;-70
2023/08/19 14:08:18;;;;;;;34.25;25.92;;;;;;;;;;5013378;28;20190;-70
2023/08/19 14:10:45;;;;;;;34.90;27.15;;;;;;;;;;5030168;28;20189;-70
2023/08/19 14:13:10;;;;;;;33.42;24.92;;;;;;;;;;5026341;28;20672;-70
2023/08/19 14:15:36;;;;;;;29.55;23.77;;;;;;;;;;5030957;28;20218;-70
2023/08/19 14:18:02;;;;;;;29.20;22.50;;;;;;;;;;5037813;28;20525;-71
2023/08/19 14:20:28;;;;;;;26.52;20.25;;;;;;;;;;5026059;28;20194;-70